Terminal Aerodrome Forecast
Issued by NWS Wilmington, OH

Current Version | Previous Version | Text Only | Print | Product List | Glossary Off
Versions: 1 2 3 4 5 6 7 8 9 10 11 12 13 14 15 16 17 18 19 20 21

000
FTUS41 KILN 301100 RRA
TAFILN
TAF
KILN 301141Z 3012/3112 22004KT P6SM SCT040
     FM301600 25008KT P6SM VCSH BKN040
     FM302300 23003KT P6SM SCT040=

USA.gov is the U.S. government's official web portal to all federal, state and local government web resources and services.